sensor_id;sensor_type;location;lat;lon;timestamp;pressure;altitude;pressure_sealevel;temperature;humidity
32251;BME280;41295;48.518;9.206;2023-04-04T00:00:56;97907.50;;;4.26;42.34
32251;BME280;41295;48.518;9.206;2023-04-04T00:02:59;97904.06;;;4.25;42.75
32251;BME280;41295;48.518;9.206;2023-04-04T00:05:03;97910.06;;;4.24;42.85
32251;BME280;41295;48.518;9.206;2023-04-04T00:07:05;97906.66;;;4.25;42.58
32251;BME280;41295;48.518;9.206;2023-04-04T00:09:08;97904.91;;;4.23;42.69
32251;BME280;41295;48.518;9.206;2023-04-04T00:11:11;97905.78;;;4.18;42.97
32251;BME280;41295;48.518;9.206;2023-04-04T00:13:14;97897.19;;;4.18;42.97
32251;BME280;41295;48.518;9.206;2023-04-04T00:15:16;97900.66;;;4.12;42.78
32251;BME280;41295;48.518;9.206;2023-04-04T00:17:19;97894.63;;;4.12;42.68
32251;BME280;41295;48.518;9.206;2023-04-04T00:19:26;97900.66;;;4.11;42.63
32251;BME280;41295;48.518;9.206;2023-04-04T00:21:29;97887.72;;;4.06;42.15
32251;BME280;41295;48.518;9.206;2023-04-04T00:23:31;97892.91;;;4.00;42.42
32251;BME280;41295;48.518;9.206;2023-04-04T00:25:34;97887.75;;;3.98;41.98
32251;BME280;41295;48.518;9.206;2023-04-04T00:27:37;97897.22;;;3.99;42.25
32251;BME280;41295;48.518;9.206;2023-04-04T00:29:39;97886.03;;;4.00;42.15
32251;BME280;41295;48.518;9.206;2023-04-04T00:31:42;97886.88;;;4.04;41.79
32251;BME280;41295;48.518;9.206;2023-04-04T00:33:45;97882.59;;;4.03;42.39
32251;BME280;41295;48.518;9.206;2023-04-04T00:35:49;97881.69;;;4.04;42.59
32251;BME280;41295;48.518;9.206;2023-04-04T00:37:51;97885.16;;;4.03;42.55
32251;BME280;41295;48.518;9.206;2023-04-04T00:39:54;97875.72;;;4.02;42.64
32251;BME280;41295;48.518;9.206;2023-04-04T00:41:56;97880.03;;;3.98;42.34
32251;BME280;41295;48.518;9.206;2023-04-04T00:43:59;97869.69;;;4.00;42.43
32251;BME280;41295;48.518;9.206;2023-04-04T00:46:02;97874.84;;;3.95;42.22
32251;BME280;41295;48.518;9.206;2023-04-04T00:48:05;97877.41;;;3.95;42.19
32251;BME280;41295;48.518;9.206;2023-04-04T00:50:08;97873.16;;;3.91;42.42
32251;BME280;41295;48.518;9.206;2023-04-04T00:52:13;97868.81;;;3.90;42.33
32251;BME280;41295;48.518;9.206;2023-04-04T00:54:15;97872.25;;;3.93;42.57
32251;BME280;41295;48.518;9.206;2023-04-04T00:56:18;97874.00;;;3.91;42.75
32251;BME280;41295;48.518;9.206;2023-04-04T00:58:21;97864.53;;;3.92;42.24
32251;BME280;41295;48.518;9.206;2023-04-04T01:00:24;97866.25;;;4.07;42.14
32251;BME280;41295;48.518;9.206;2023-04-04T01:02:26;97862.81;;;4.03;41.36
32251;BME280;41295;48.518;9.206;2023-04-04T01:04:29;97871.41;;;3.94;42.05
32251;BME280;41295;48.518;9.206;2023-04-04T01:06:32;97863.69;;;3.91;42.57
32251;BME280;41295;48.518;9.206;2023-04-04T01:08:38;97862.81;;;3.89;42.76
32251;BME280;41295;48.518;9.206;2023-04-04T01:10:41;97864.53;;;3.85;43.21
32251;BME280;41295;48.518;9.206;2023-04-04T01:12:44;97866.25;;;3.85;43.23
32251;BME280;41295;48.518;9.206;2023-04-04T01:14:47;97853.38;;;3.83;43.21
32251;BME280;41295;48.518;9.206;2023-04-04T01:16:50;97862.81;;;3.83;43.32
32251;BME280;41295;48.518;9.206;2023-04-04T01:18:53;97859.38;;;3.81;42.93
32251;BME280;41295;48.518;9.206;2023-04-04T01:21:00;97855.97;;;3.79;43.40
32251;BME280;41295;48.518;9.206;2023-04-04T01:23:03;97851.66;;;3.76;43.46
32251;BME280;41295;48.518;9.206;2023-04-04T01:25:08;97860.25;;;3.72;43.38
32251;BME280;41295;48.518;9.206;2023-04-04T01:27:12;97847.34;;;3.70;43.63
32251;BME280;41295;48.518;9.206;2023-04-04T01:29:14;97849.94;;;3.69;43.74
32251;BME280;41295;48.518;9.206;2023-04-04T01:31:21;97840.47;;;3.69;43.52
32251;BME280;41295;48.518;9.206;2023-04-04T01:33:27;97835.31;;;3.69;43.82
32251;BME280;41295;48.518;9.206;2023-04-04T01:35:35;97834.47;;;3.67;43.69
32251;BME280;41295;48.518;9.206;2023-04-04T01:37:49;97837.91;;;3.66;43.88
32251;BME280;41295;48.518;9.206;2023-04-04T01:40:02;97840.50;;;3.66;44.32
32251;BME280;41295;48.518;9.206;2023-04-04T01:42:07;97835.31;;;3.65;43.80
32251;BME280;41295;48.518;9.206;2023-04-04T01:44:12;97840.47;;;3.63;44.17
32251;BME280;41295;48.518;9.206;2023-04-04T01:46:16;97839.63;;;3.64;44.28
32251;BME280;41295;48.518;9.206;2023-04-04T01:48:19;97833.59;;;3.62;44.76
32251;BME280;41295;48.518;9.206;2023-04-04T01:50:22;97841.34;;;3.60;44.65
32251;BME280;41295;48.518;9.206;2023-04-04T01:52:26;97838.78;;;3.59;44.37
32251;BME280;41295;48.518;9.206;2023-04-04T01:54:29;97843.06;;;3.55;44.56
32251;BME280;41295;48.518;9.206;2023-04-04T01:56:33;97837.91;;;3.54;44.07
32251;BME280;41295;48.518;9.206;2023-04-04T01:58:36;97843.06;;;3.54;44.18
32251;BME280;41295;48.518;9.206;2023-04-04T02:00:39;97832.75;;;3.54;44.50
32251;BME280;41295;48.518;9.206;2023-04-04T02:02:43;97841.34;;;3.54;44.95
32251;BME280;41295;48.518;9.206;2023-04-04T02:04:45;97839.63;;;3.52;44.97
32251;BME280;41295;48.518;9.206;2023-04-04T02:06:48;97840.47;;;3.47;45.27
32251;BME280;41295;48.518;9.206;2023-04-04T02:08:52;97847.34;;;3.47;45.45
32251;BME280;41295;48.518;9.206;2023-04-04T02:10:56;97850.81;;;3.46;44.99
32251;BME280;41295;48.518;9.206;2023-04-04T02:12:59;97845.66;;;3.43;45.29
32251;BME280;41295;48.518;9.206;2023-04-04T02:15:02;97847.38;;;3.42;45.37
32251;BME280;41295;48.518;9.206;2023-04-04T02:17:06;97843.91;;;3.43;45.62
32251;BME280;41295;48.518;9.206;2023-04-04T02:19:09;97852.53;;;3.41;45.51
32251;BME280;41295;48.518;9.206;2023-04-04T02:21:12;97854.22;;;3.39;45.18
32251;BME280;41295;48.518;9.206;2023-04-04T02:23:14;97852.53;;;3.41;45.31
32251;BME280;41295;48.518;9.206;2023-04-04T02:25:17;97848.19;;;3.40;45.31
32251;BME280;41295;48.518;9.206;2023-04-04T02:27:20;97849.06;;;3.37;45.55
32251;BME280;41295;48.518;9.206;2023-04-04T02:29:22;97854.25;;;3.35;45.69
32251;BME280;41295;48.518;9.206;2023-04-04T02:31:25;97841.34;;;3.32;45.61
32251;BME280;41295;48.518;9.206;2023-04-04T02:33:29;97849.06;;;3.29;45.90
32251;BME280;41295;48.518;9.206;2023-04-04T02:35:32;97849.06;;;3.23;45.85
32251;BME280;41295;48.518;9.206;2023-04-04T02:37:34;97846.50;;;3.21;45.88
32251;BME280;41295;48.518;9.206;2023-04-04T02:39:37;97840.47;;;3.21;46.00
32251;BME280;41295;48.518;9.206;2023-04-04T02:41:40;97844.75;;;3.20;46.30
32251;BME280;41295;48.518;9.206;2023-04-04T02:43:43;97840.47;;;3.19;46.28
32251;BME280;41295;48.518;9.206;2023-04-04T02:45:46;97840.47;;;3.16;46.03
32251;BME280;41295;48.518;9.206;2023-04-04T02:47:50;97843.06;;;3.18;45.83
32251;BME280;41295;48.518;9.206;2023-04-04T02:49:54;97839.59;;;3.19;46.50
32251;BME280;41295;48.518;9.206;2023-04-04T02:51:57;97835.28;;;3.15;45.93
32251;BME280;41295;48.518;9.206;2023-04-04T02:53:59;97842.19;;;3.14;46.20
32251;BME280;41295;48.518;9.206;2023-04-04T02:56:03;97832.72;;;3.10;46.15
32251;BME280;41295;48.518;9.206;2023-04-04T02:58:06;97831.00;;;3.09;46.70
32251;BME280;41295;48.518;9.206;2023-04-04T03:00:09;97831.00;;;3.04;47.20
32251;BME280;41295;48.518;9.206;2023-04-04T03:02:12;97832.69;;;3.02;47.84
32251;BME280;41295;48.518;9.206;2023-04-04T03:04:15;97836.16;;;2.99;47.90
32251;BME280;41295;48.518;9.206;2023-04-04T03:06:21;97837.84;;;2.96;47.87
32251;BME280;41295;48.518;9.206;2023-04-04T03:08:23;97842.13;;;2.94;47.74
32251;BME280;41295;48.518;9.206;2023-04-04T03:10:27;97832.66;;;2.89;47.75
32251;BME280;41295;48.518;9.206;2023-04-04T03:12:31;97830.97;;;2.88;48.41
32251;BME280;41295;48.518;9.206;2023-04-04T03:14:33;97827.53;;;2.85;48.17
32251;BME280;41295;48.518;9.206;2023-04-04T03:16:36;97835.25;;;2.83;48.47
32251;BME280;41295;48.518;9.206;2023-04-04T03:18:39;97827.53;;;2.82;49.06
32251;BME280;41295;48.518;9.206;2023-04-04T03:20:42;97836.09;;;2.79;48.85
32251;BME280;41295;48.518;9.206;2023-04-04T03:22:45;97836.09;;;2.76;48.64
32251;BME280;41295;48.518;9.206;2023-04-04T03:24:48;97834.34;;;2.73;49.28
32251;BME280;41295;48.518;9.206;2023-04-04T03:26:51;97836.09;;;2.73;49.02
32251;BME280;41295;48.518;9.206;2023-04-04T03:28:53;97826.63;;;2.72;49.10
32251;BME280;41295;48.518;9.206;2023-04-04T03:30:56;97830.94;;;2.71;49.02
32251;BME280;41295;48.518;9.206;2023-04-04T03:33:02;97829.19;;;2.69;49.37
32251;BME280;41295;48.518;9.206;2023-04-04T03:35:05;97840.38;;;2.66;49.61
32251;BME280;41295;48.518;9.206;2023-04-04T03:37:08;97835.19;;;2.63;48.96
32251;BME280;41295;48.518;9.206;2023-04-04T03:39:12;97833.47;;;2.59;48.98
32251;BME280;41295;48.518;9.206;2023-04-04T03:41:15;97834.31;;;2.56;49.19
32251;BME280;41295;48.518;9.206;2023-04-04T03:43:17;97839.44;;;2.53;49.77
32251;BME280;41295;48.518;9.206;2023-04-04T03:45:20;97837.75;;;2.54;49.38
32251;BME280;41295;48.518;9.206;2023-04-04T03:47:22;97836.88;;;2.51;49.63
32251;BME280;41295;48.518;9.206;2023-04-04T03:49:26;97842.03;;;2.50;49.47
32251;BME280;41295;48.518;9.206;2023-04-04T03:51:28;97833.41;;;2.46;49.92
32251;BME280;41295;48.518;9.206;2023-04-04T03:53:31;97833.41;;;2.45;50.03
32251;BME280;41295;48.518;9.206;2023-04-04T03:55:39;97823.97;;;2.44;49.63
32251;BME280;41295;48.518;9.206;2023-04-04T03:57:42;97831.69;;;2.42;50.31
32251;BME280;41295;48.518;9.206;2023-04-04T03:59:44;97829.09;;;2.40;49.51
32251;BME280;41295;48.518;9.206;2023-04-04T04:01:47;97829.09;;;2.37;49.42
32251;BME280;41295;48.518;9.206;2023-04-04T04:03:50;97829.94;;;2.33;50.18
32251;BME280;41295;48.518;9.206;2023-04-04T04:05:52;97841.09;;;2.32;50.26
32251;BME280;41295;48.518;9.206;2023-04-04T04:07:55;97832.50;;;2.30;50.44
32251;BME280;41295;48.518;9.206;2023-04-04T04:09:58;97835.91;;;2.31;50.29
32251;BME280;41295;48.518;9.206;2023-04-04T04:12:02;97835.91;;;2.27;50.01
32251;BME280;41295;48.518;9.206;2023-04-04T04:14:05;97838.47;;;2.27;49.96
32251;BME280;41295;48.518;9.206;2023-04-04T04:16:07;97833.31;;;2.24;50.46
32251;BME280;41295;48.518;9.206;2023-04-04T04:18:10;97833.31;;;2.21;50.17
32251;BME280;41295;48.518;9.206;2023-04-04T04:20:12;97831.56;;;2.20;50.60
32251;BME280;41295;48.518;9.206;2023-04-04T04:22:15;97829.00;;;2.20;50.26
32251;BME280;41295;48.518;9.206;2023-04-04T04:24:18;97837.59;;;2.21;50.77
32251;BME280;41295;48.518;9.206;2023-04-04T04:26:20;97835.00;;;2.21;50.88
32251;BME280;41295;48.518;9.206;2023-04-04T04:28:24;97841.88;;;2.20;50.76
32251;BME280;41295;48.518;9.206;2023-04-04T04:30:34;97833.25;;;2.16;51.21
32251;BME280;41295;48.518;9.206;2023-04-04T04:32:37;97842.72;;;2.18;50.51
32251;BME280;41295;48.518;9.206;2023-04-04T04:34:39;97841.84;;;2.15;50.64
32251;BME280;41295;48.518;9.206;2023-04-04T04:36:42;97843.56;;;2.15;51.41
32251;BME280;41295;48.518;9.206;2023-04-04T04:38:44;97834.13;;;2.12;51.17
32251;BME280;41295;48.518;9.206;2023-04-04T04:40:47;97833.25;;;2.13;50.60
32251;BME280;41295;48.518;9.206;2023-04-04T04:42:50;97834.13;;;2.11;51.05
32251;BME280;41295;48.518;9.206;2023-04-04T04:44:55;97839.25;;;2.11;51.08
32251;BME280;41295;48.518;9.206;2023-04-04T04:46:57;97846.09;;;2.07;50.88
32251;BME280;41295;48.518;9.206;2023-04-04T04:49:00;97845.25;;;2.07;50.80
32251;BME280;41295;48.518;9.206;2023-04-04T04:51:03;97839.22;;;2.03;51.32
32251;BME280;41295;48.518;9.206;2023-04-04T04:53:06;97838.34;;;2.01;51.03
32251;BME280;41295;48.518;9.206;2023-04-04T04:55:09;97840.91;;;1.99;51.77
32251;BME280;41295;48.518;9.206;2023-04-04T04:57:12;97846.03;;;1.99;51.37
32251;BME280;41295;48.518;9.206;2023-04-04T04:59:14;97847.75;;;1.99;51.63
32251;BME280;41295;48.518;9.206;2023-04-04T05:01:18;97849.50;;;2.00;51.83
32251;BME280;41295;48.518;9.206;2023-04-04T05:03:21;97847.75;;;1.97;51.81
32251;BME280;41295;48.518;9.206;2023-04-04T05:05:24;97846.88;;;1.97;51.53
32251;BME280;41295;48.518;9.206;2023-04-04T05:07:26;97852.88;;;1.96;51.80
32251;BME280;41295;48.518;9.206;2023-04-04T05:09:29;97851.13;;;1.91;51.92
32251;BME280;41295;48.518;9.206;2023-04-04T05:11:31;97852.88;;;1.92;51.80
32251;BME280;41295;48.518;9.206;2023-04-04T05:13:34;97853.69;;;1.90;51.83
32251;BME280;41295;48.518;9.206;2023-04-04T05:15:37;97849.41;;;1.89;52.27
32251;BME280;41295;48.518;9.206;2023-04-04T05:17:41;97846.84;;;1.87;51.88
32251;BME280;41295;48.518;9.206;2023-04-04T05:19:44;97856.25;;;1.88;52.28
32251;BME280;41295;48.518;9.206;2023-04-04T05:21:47;97854.50;;;1.84;52.29
32251;BME280;41295;48.518;9.206;2023-04-04T05:23:49;97859.66;;;1.84;51.94
32251;BME280;41295;48.518;9.206;2023-04-04T05:25:52;97853.69;;;1.85;52.18
32251;BME280;41295;48.518;9.206;2023-04-04T05:27:54;97852.81;;;1.85;52.26
32251;BME280;41295;48.518;9.206;2023-04-04T05:29:58;97855.38;;;1.83;52.43
32251;BME280;41295;48.518;9.206;2023-04-04T05:32:01;97858.81;;;1.82;52.60
32251;BME280;41295;48.518;9.206;2023-04-04T05:34:05;97853.63;;;1.79;52.78
32251;BME280;41295;48.518;9.206;2023-04-04T05:36:09;97859.63;;;1.79;53.12
32251;BME280;41295;48.518;9.206;2023-04-04T05:38:13;97857.91;;;1.77;52.34
32251;BME280;41295;48.518;9.206;2023-04-04T05:40:17;97865.63;;;1.77;52.25
32251;BME280;41295;48.518;9.206;2023-04-04T05:42:19;97860.44;;;1.72;52.99
32251;BME280;41295;48.518;9.206;2023-04-04T05:44:22;97864.75;;;1.75;52.25
32251;BME280;41295;48.518;9.206;2023-04-04T05:46:24;97866.47;;;1.74;52.40
32251;BME280;41295;48.518;9.206;2023-04-04T05:48:27;97866.47;;;1.77;52.83
32251;BME280;41295;48.518;9.206;2023-04-04T05:50:31;97863.06;;;1.77;52.64
32251;BME280;41295;48.518;9.206;2023-04-04T05:52:33;97861.34;;;1.80;52.98
32251;BME280;41295;48.518;9.206;2023-04-04T05:54:36;97865.66;;;1.82;52.58
32251;BME280;41295;48.518;9.206;2023-04-04T05:56:39;97861.34;;;1.79;53.00
32251;BME280;41295;48.518;9.206;2023-04-04T05:58:42;97858.78;;;1.80;53.03
32251;BME280;41295;48.518;9.206;2023-04-04T06:00:46;97857.06;;;1.83;52.37
32251;BME280;41295;48.518;9.206;2023-04-04T06:02:49;97857.94;;;1.83;52.95
32251;BME280;41295;48.518;9.206;2023-04-04T06:04:53;97855.38;;;1.85;52.76
32251;BME280;41295;48.518;9.206;2023-04-04T06:06:57;97851.97;;;1.86;52.64
32251;BME280;41295;48.518;9.206;2023-04-04T06:09:01;97858.00;;;1.89;52.61
32251;BME280;41295;48.518;9.206;2023-04-04T06:11:03;97855.41;;;1.88;52.65
32251;BME280;41295;48.518;9.206;2023-04-04T06:13:06;97863.16;;;1.91;52.33
32251;BME280;41295;48.518;9.206;2023-04-04T06:15:09;97856.28;;;1.93;52.64
32251;BME280;41295;48.518;9.206;2023-04-04T06:17:12;97864.84;;;1.90;52.87
32251;BME280;41295;48.518;9.206;2023-04-04T06:19:14;97863.16;;;1.92;53.04
32251;BME280;41295;48.518;9.206;2023-04-04T06:21:17;97866.56;;;1.93;53.33
32251;BME280;41295;48.518;9.206;2023-04-04T06:23:21;97877.72;;;1.92;52.60
32251;BME280;41295;48.518;9.206;2023-04-04T06:25:24;97873.47;;;1.94;53.03
32251;BME280;41295;48.518;9.206;2023-04-04T06:27:27;97871.75;;;1.95;53.20
32251;BME280;41295;48.518;9.206;2023-04-04T06:29:30;97868.31;;;1.97;52.89
32251;BME280;41295;48.518;9.206;2023-04-04T06:31:32;97873.47;;;1.99;53.33
32251;BME280;41295;48.518;9.206;2023-04-04T06:33:35;97863.19;;;2.02;53.65
32251;BME280;41295;48.518;9.206;2023-04-04T06:35:37;97870.09;;;2.03;53.90
32251;BME280;41295;48.518;9.206;2023-04-04T06:37:40;97870.97;;;2.07;53.17
32251;BME280;41295;48.518;9.206;2023-04-04T06:39:44;97866.69;;;2.09;53.31
32251;BME280;41295;48.518;9.206;2023-04-04T06:41:46;97866.69;;;2.07;53.59
32251;BME280;41295;48.518;9.206;2023-04-04T06:43:49;97865.84;;;2.13;53.03
32251;BME280;41295;48.518;9.206;2023-04-04T06:45:52;97866.72;;;2.16;53.39
32251;BME280;41295;48.518;9.206;2023-04-04T06:47:55;97865.03;;;2.19;53.23
32251;BME280;41295;48.518;9.206;2023-04-04T06:49:58;97857.31;;;2.22;52.94
32251;BME280;41295;48.518;9.206;2023-04-04T06:52:01;97864.22;;;2.26;53.51
32251;BME280;41295;48.518;9.206;2023-04-04T06:54:04;97860.75;;;2.25;53.08
32251;BME280;41295;48.518;9.206;2023-04-04T06:56:08;97861.63;;;2.29;52.92
32251;BME280;41295;48.518;9.206;2023-04-04T06:58:10;97861.63;;;2.29;53.16
32251;BME280;41295;48.518;9.206;2023-04-04T07:00:14;97854.78;;;2.33;52.51
32251;BME280;41295;48.518;9.206;2023-04-04T07:02:16;97863.38;;;2.33;52.85
32251;BME280;41295;48.518;9.206;2023-04-04T07:04:19;97852.25;;;2.36;52.37
32251;BME280;41295;48.518;9.206;2023-04-04T07:06:22;97853.97;;;2.37;52.23
32251;BME280;41295;48.518;9.206;2023-04-04T07:08:28;97851.41;;;2.37;52.34
32251;BME280;41295;48.518;9.206;2023-04-04T07:10:36;97846.25;;;2.37;51.81
32251;BME280;41295;48.518;9.206;2023-04-04T07:12:42;97846.25;;;2.42;51.59
32251;BME280;41295;48.518;9.206;2023-04-04T07:14:45;97843.69;;;2.43;51.81
32251;BME280;41295;48.518;9.206;2023-04-04T07:16:47;97845.41;;;2.46;51.29
32251;BME280;41295;48.518;9.206;2023-04-04T07:18:50;97849.75;;;2.50;51.85
32251;BME280;41295;48.518;9.206;2023-04-04T07:20:53;97852.31;;;2.56;51.48
32251;BME280;41295;48.518;9.206;2023-04-04T07:22:55;97843.72;;;2.56;51.81
32251;BME280;41295;48.518;9.206;2023-04-04T07:24:58;97848.03;;;2.55;51.21
32251;BME280;41295;48.518;9.206;2023-04-04T07:27:01;97844.59;;;2.59;51.28
32251;BME280;41295;48.518;9.206;2023-04-04T07:29:05;97851.50;;;2.63;50.77
32251;BME280;41295;48.518;9.206;2023-04-04T07:31:07;97848.94;;;2.68;51.16
32251;BME280;41295;48.518;9.206;2023-04-04T07:33:10;97848.97;;;2.71;50.82
32251;BME280;41295;48.518;9.206;2023-04-04T07:35:12;97850.66;;;2.75;50.93
32251;BME280;41295;48.518;9.206;2023-04-04T07:37:15;97849.81;;;2.73;50.41
32251;BME280;41295;48.518;9.206;2023-04-04T07:39:19;97842.97;;;2.80;50.59
32251;BME280;41295;48.518;9.206;2023-04-04T07:41:22;97841.25;;;2.78;49.74
32251;BME280;41295;48.518;9.206;2023-04-04T07:43:24;97839.53;;;2.78;49.67
32251;BME280;41295;48.518;9.206;2023-04-04T07:45:28;97845.56;;;2.83;49.98
32251;BME280;41295;48.518;9.206;2023-04-04T07:47:31;97844.69;;;2.81;49.92
32251;BME280;41295;48.518;9.206;2023-04-04T07:49:34;97845.56;;;2.83;50.66
32251;BME280;41295;48.518;9.206;2023-04-04T07:51:36;97847.25;;;2.84;51.09
32251;BME280;41295;48.518;9.206;2023-04-04T07:53:40;97837.00;;;2.87;50.32
32251;BME280;41295;48.518;9.206;2023-04-04T07:55:42;97846.44;;;2.95;50.43
32251;BME280;41295;48.518;9.206;2023-04-04T07:57:45;97844.72;;;2.95;51.16
32251;BME280;41295;48.518;9.206;2023-04-04T07:59:48;97846.44;;;3.03;50.95
32251;BME280;41295;48.518;9.206;2023-04-04T08:01:52;97844.75;;;3.09;50.63
32251;BME280;41295;48.518;9.206;2023-04-04T08:03:54;97854.19;;;3.18;50.33
32251;BME280;41295;48.518;9.206;2023-04-04T08:05:57;97840.47;;;3.19;49.65
32251;BME280;41295;48.518;9.206;2023-04-04T08:08:00;97848.22;;;3.29;49.07
32251;BME280;41295;48.518;9.206;2023-04-04T08:10:07;97852.50;;;3.33;49.16
32251;BME280;41295;48.518;9.206;2023-04-04T08:12:10;97855.09;;;3.41;48.55
32251;BME280;41295;48.518;9.206;2023-04-04T08:14:12;97852.50;;;3.48;48.64
32251;BME280;41295;48.518;9.206;2023-04-04T08:16:15;97852.53;;;3.53;49.59
32251;BME280;41295;48.518;9.206;2023-04-04T08:18:19;97857.69;;;3.66;49.56
32251;BME280;41295;48.518;9.206;2023-04-04T08:20:22;97852.50;;;3.70;48.55
32251;BME280;41295;48.518;9.206;2023-04-04T08:22:24;97853.34;;;3.76;48.54
32251;BME280;41295;48.518;9.206;2023-04-04T08:24:27;97853.38;;;3.79;48.26
32251;BME280;41295;48.518;9.206;2023-04-04T08:26:29;97850.72;;;4.04;46.01
32251;BME280;41295;48.518;9.206;2023-04-04T08:28:32;97852.47;;;3.95;45.94
32251;BME280;41295;48.518;9.206;2023-04-04T08:30:35;97853.34;;;3.99;45.83
32251;BME280;41295;48.518;9.206;2023-04-04T08:32:38;97855.91;;;4.04;45.41
32251;BME280;41295;48.518;9.206;2023-04-04T08:34:42;97848.16;;;4.01;46.18
32251;BME280;41295;48.518;9.206;2023-04-04T08:36:45;97852.47;;;4.03;47.12
32251;BME280;41295;48.518;9.206;2023-04-04T08:38:48;97849.88;;;4.14;45.53
32251;BME280;41295;48.518;9.206;2023-04-04T08:40:50;97843.00;;;4.12;46.38
32251;BME280;41295;48.518;9.206;2023-04-04T08:42:53;97849.03;;;4.12;46.77
32251;BME280;41295;48.518;9.206;2023-04-04T08:44:59;97850.69;;;4.30;45.25
32251;BME280;41295;48.518;9.206;2023-04-04T08:47:05;97848.13;;;4.21;46.02
32251;BME280;41295;48.518;9.206;2023-04-04T08:49:11;97845.47;;;4.40;45.20
32251;BME280;41295;48.518;9.206;2023-04-04T08:51:16;97843.78;;;4.36;45.18
32251;BME280;41295;48.518;9.206;2023-04-04T08:53:19;97844.63;;;4.35;45.73
32251;BME280;41295;48.518;9.206;2023-04-04T08:55:21;97844.63;;;4.36;45.38
32251;BME280;41295;48.518;9.206;2023-04-04T08:57:24;97848.06;;;4.40;45.26
32251;BME280;41295;48.518;9.206;2023-04-04T08:59:27;97854.09;;;4.40;44.53
32251;BME280;41295;48.518;9.206;2023-04-04T09:01:30;97850.63;;;4.48;44.48
32251;BME280;41295;48.518;9.206;2023-04-04T09:03:34;97848.03;;;4.51;45.12
32251;BME280;41295;48.518;9.206;2023-04-04T09:05:37;97843.75;;;4.42;45.00
32251;BME280;41295;48.518;9.206;2023-04-04T09:07:42;97857.53;;;4.42;45.10
32251;BME280;41295;48.518;9.206;2023-04-04T09:09:45;97855.75;;;4.57;43.62
32251;BME280;41295;48.518;9.206;2023-04-04T09:11:49;97848.88;;;4.56;44.26
32251;BME280;41295;48.518;9.206;2023-04-04T09:13:54;97846.31;;;4.45;44.64
32251;BME280;41295;48.518;9.206;2023-04-04T09:15:59;97847.16;;;4.49;44.47
32251;BME280;41295;48.518;9.206;2023-04-04T09:18:02;97854.06;;;4.50;44.42
32251;BME280;41295;48.518;9.206;2023-04-04T09:20:38;97848.91;;;4.43;44.52
32251;BME280;41295;48.518;9.206;2023-04-04T09:22:45;97859.19;;;4.61;44.70
32251;BME280;41295;48.518;9.206;2023-04-04T09:24:48;97849.66;;;4.71;43.66
32251;BME280;41295;48.518;9.206;2023-04-04T09:26:52;97860.88;;;4.68;44.66
32251;BME280;41295;48.518;9.206;2023-04-04T09:28:55;97857.41;;;4.74;44.91
32251;BME280;41295;48.518;9.206;2023-04-04T09:30:59;97861.69;;;4.76;43.90
32251;BME280;41295;48.518;9.206;2023-04-04T09:33:04;97859.97;;;4.78;43.89
32251;BME280;41295;48.518;9.206;2023-04-04T09:35:08;97855.66;;;4.82;44.25
32251;BME280;41295;48.518;9.206;2023-04-04T09:37:13;97853.78;;;5.06;42.31
32251;BME280;41295;48.518;9.206;2023-04-04T09:39:20;97853.81;;;5.01;43.07
32251;BME280;41295;48.518;9.206;2023-04-04T09:41:25;97844.31;;;5.07;42.74
32251;BME280;41295;48.518;9.206;2023-04-04T09:43:29;97850.41;;;4.98;43.18
32251;BME280;41295;48.518;9.206;2023-04-04T09:45:35;97853.00;;;4.95;43.12
32251;BME280;41295;48.518;9.206;2023-04-04T09:47:40;97850.41;;;4.98;43.03
32251;BME280;41295;48.518;9.206;2023-04-04T09:49:43;97851.13;;;5.17;42.19
32251;BME280;41295;48.518;9.206;2023-04-04T09:51:47;97842.50;;;5.20;41.48
32251;BME280;41295;48.518;9.206;2023-04-04T09:53:50;97851.13;;;5.17;42.01
32251;BME280;41295;48.518;9.206;2023-04-04T09:55:56;97860.66;;;5.10;42.43
32251;BME280;41295;48.518;9.206;2023-04-04T09:57:59;97848.50;;;5.25;41.37
32251;BME280;41295;48.518;9.206;2023-04-04T10:00:06;97857.88;;;5.38;42.31
32251;BME280;41295;48.518;9.206;2023-04-04T10:02:10;97853.63;;;5.31;41.99
32251;BME280;41295;48.518;9.206;2023-04-04T10:04:13;97851.97;;;5.22;42.58
32251;BME280;41295;48.518;9.206;2023-04-04T10:06:17;97842.44;;;5.31;41.84
32251;BME280;41295;48.518;9.206;2023-04-04T10:08:21;97843.28;;;5.31;41.80
32251;BME280;41295;48.518;9.206;2023-04-04T10:10:26;97844.97;;;5.35;41.31
32251;BME280;41295;48.518;9.206;2023-04-04T10:12:30;97839.84;;;5.31;41.80
32251;BME280;41295;48.518;9.206;2023-04-04T10:14:33;97841.59;;;5.28;42.03
32251;BME280;41295;48.518;9.206;2023-04-04T10:16:36;97843.19;;;5.44;42.88
32251;BME280;41295;48.518;9.206;2023-04-04T10:18:39;97839.66;;;5.57;41.58
32251;BME280;41295;48.518;9.206;2023-04-04T10:20:42;97845.59;;;5.65;41.44
32251;BME280;41295;48.518;9.206;2023-04-04T10:22:45;97847.44;;;5.52;42.26
32251;BME280;41295;48.518;9.206;2023-04-04T10:24:48;97840.44;;;5.65;41.60
32251;BME280;41295;48.518;9.206;2023-04-04T10:26:51;97839.66;;;5.54;42.19
32251;BME280;41295;48.518;9.206;2023-04-04T10:28:57;97842.28;;;5.49;42.55
32251;BME280;41295;48.518;9.206;2023-04-04T10:31:02;97841.41;;;5.53;42.89
32251;BME280;41295;48.518;9.206;2023-04-04T10:33:09;97843.16;;;5.50;43.10
32251;BME280;41295;48.518;9.206;2023-04-04T10:35:13;97839.66;;;5.54;43.13
32251;BME280;41295;48.518;9.206;2023-04-04T10:37:20;97832.72;;;5.58;42.57
32251;BME280;41295;48.518;9.206;2023-04-04T10:39:26;97824.84;;;5.75;41.57
32251;BME280;41295;48.518;9.206;2023-04-04T10:41:31;97829.19;;;5.71;42.38
32251;BME280;41295;48.518;9.206;2023-04-04T10:43:38;97833.53;;;5.68;41.83
32251;BME280;41295;48.518;9.206;2023-04-04T10:45:43;97837.78;;;5.72;41.74
32251;BME280;41295;48.518;9.206;2023-04-04T10:47:46;97830.97;;;5.61;41.67
32251;BME280;41295;48.518;9.206;2023-04-04T10:49:50;97838.72;;;5.63;41.20
32251;BME280;41295;48.518;9.206;2023-04-04T10:51:53;97835.97;;;5.83;41.14
32251;BME280;41295;48.518;9.206;2023-04-04T10:53:58;97839.50;;;5.74;41.51
32251;BME280;41295;48.518;9.206;2023-04-04T10:56:01;97832.63;;;5.70;41.36
32251;BME280;41295;48.518;9.206;2023-04-04T10:58:04;97835.31;;;5.61;40.68
32251;BME280;41295;48.518;9.206;2023-04-04T11:00:11;97829.28;;;5.59;41.15
32251;BME280;41295;48.518;9.206;2023-04-04T11:02:16;97820.63;;;5.60;41.46